sensor_id;sensor_type;location;lat;lon;timestamp;P1;durP1;ratioP1;P2;durP2;ratioP2
48685;SDS011;34485;51.536;3.816;2023-10-09T00:02:10;10.80;;;4.60;;
48685;SDS011;34485;51.536;3.816;2023-10-09T00:04:37;10.32;;;4.50;;
48685;SDS011;34485;51.536;3.816;2023-10-09T00:07:06;13.88;;;5.82;;
48685;SDS011;34485;51.536;3.816;2023-10-09T00:09:35;8.50;;;5.43;;
48685;SDS011;34485;51.536;3.816;2023-10-09T00:12:16;14.38;;;5.63;;
48685;SDS011;34485;51.536;3.816;2023-10-09T00:14:47;10.48;;;5.82;;
48685;SDS011;34485;51.536;3.816;2023-10-09T00:17:16;13.55;;;5.18;;
48685;SDS011;34485;51.536;3.816;2023-10-09T00:19:45;10.07;;;4.68;;
48685;SDS011;34485;51.536;3.816;2023-10-09T00:22:19;10.20;;;5.73;;
48685;SDS011;34485;51.536;3.816;2023-10-09T00:24:45;10.75;;;5.20;;
48685;SDS011;34485;51.536;3.816;2023-10-09T00:27:15;17.63;;;6.40;;
48685;SDS011;34485;51.536;3.816;2023-10-09T00:29:43;10.47;;;6.03;;
48685;SDS011;34485;51.536;3.816;2023-10-09T00:32:10;15.43;;;6.78;;
48685;SDS011;34485;51.536;3.816;2023-10-09T00:34:51;15.25;;;6.07;;
48685;SDS011;34485;51.536;3.816;2023-10-09T00:37:17;10.68;;;5.18;;
48685;SDS011;34485;51.536;3.816;2023-10-09T00:39:48;15.32;;;5.55;;
48685;SDS011;34485;51.536;3.816;2023-10-09T00:42:20;26.23;;;6.60;;
48685;SDS011;34485;51.536;3.816;2023-10-09T00:45:05;14.18;;;6.60;;
48685;SDS011;34485;51.536;3.816;2023-10-09T00:47:35;14.93;;;6.05;;
48685;SDS011;34485;51.536;3.816;2023-10-09T00:50:07;11.57;;;5.68;;
48685;SDS011;34485;51.536;3.816;2023-10-09T00:52:46;11.98;;;5.65;;
48685;SDS011;34485;51.536;3.816;2023-10-09T00:55:17;16.20;;;7.07;;
48685;SDS011;34485;51.536;3.816;2023-10-09T00:58:01;13.13;;;5.45;;
48685;SDS011;34485;51.536;3.816;2023-10-09T01:00:31;15.63;;;6.20;;
48685;SDS011;34485;51.536;3.816;2023-10-09T01:02:57;9.00;;;5.40;;
48685;SDS011;34485;51.536;3.816;2023-10-09T01:05:45;13.43;;;4.93;;
48685;SDS011;34485;51.536;3.816;2023-10-09T01:08:21;12.02;;;4.90;;
48685;SDS011;34485;51.536;3.816;2023-10-09T01:11:10;15.20;;;5.50;;
48685;SDS011;34485;51.536;3.816;2023-10-09T01:13:49;15.03;;;5.50;;
48685;SDS011;34485;51.536;3.816;2023-10-09T01:16:15;12.77;;;5.35;;
48685;SDS011;34485;51.536;3.816;2023-10-09T01:18:45;15.07;;;6.10;;
48685;SDS011;34485;51.536;3.816;2023-10-09T01:21:14;15.05;;;5.47;;
48685;SDS011;34485;51.536;3.816;2023-10-09T01:23:46;17.88;;;6.75;;
48685;SDS011;34485;51.536;3.816;2023-10-09T01:26:30;16.73;;;5.67;;
48685;SDS011;34485;51.536;3.816;2023-10-09T01:29:13;19.42;;;5.70;;
48685;SDS011;34485;51.536;3.816;2023-10-09T01:31:45;18.50;;;6.25;;
48685;SDS011;34485;51.536;3.816;2023-10-09T01:34:25;14.15;;;6.50;;
48685;SDS011;34485;51.536;3.816;2023-10-09T01:37:13;15.70;;;6.07;;
48685;SDS011;34485;51.536;3.816;2023-10-09T01:39:43;15.03;;;5.73;;
48685;SDS011;34485;51.536;3.816;2023-10-09T01:42:16;13.45;;;5.22;;
48685;SDS011;34485;51.536;3.816;2023-10-09T01:44:55;21.05;;;6.75;;
48685;SDS011;34485;51.536;3.816;2023-10-09T01:47:23;14.55;;;6.47;;
48685;SDS011;34485;51.536;3.816;2023-10-09T01:49:50;15.50;;;6.75;;
48685;SDS011;34485;51.536;3.816;2023-10-09T01:52:18;16.87;;;6.23;;
48685;SDS011;34485;51.536;3.816;2023-10-09T01:54:45;16.75;;;6.32;;
48685;SDS011;34485;51.536;3.816;2023-10-09T01:57:13;18.58;;;7.40;;
48685;SDS011;34485;51.536;3.816;2023-10-09T01:59:40;12.02;;;6.38;;
48685;SDS011;34485;51.536;3.816;2023-10-09T02:02:12;13.77;;;6.50;;
48685;SDS011;34485;51.536;3.816;2023-10-09T02:04:58;14.00;;;6.67;;
48685;SDS011;34485;51.536;3.816;2023-10-09T02:07:34;15.32;;;6.97;;
48685;SDS011;34485;51.536;3.816;2023-10-09T02:10:10;14.75;;;7.57;;
48685;SDS011;34485;51.536;3.816;2023-10-09T02:13:01;18.08;;;7.70;;
48685;SDS011;34485;51.536;3.816;2023-10-09T02:15:32;16.65;;;7.80;;
48685;SDS011;34485;51.536;3.816;2023-10-09T02:18:08;12.63;;;6.97;;
48685;SDS011;34485;51.536;3.816;2023-10-09T02:20:51;16.90;;;7.80;;
48685;SDS011;34485;51.536;3.816;2023-10-09T02:23:40;22.92;;;8.77;;
48685;SDS011;34485;51.536;3.816;2023-10-09T02:26:09;24.42;;;8.52;;
48685;SDS011;34485;51.536;3.816;2023-10-09T02:28:45;16.63;;;7.47;;
48685;SDS011;34485;51.536;3.816;2023-10-09T02:31:23;17.20;;;7.57;;
48685;SDS011;34485;51.536;3.816;2023-10-09T02:33:51;14.55;;;8.02;;
48685;SDS011;34485;51.536;3.816;2023-10-09T02:36:19;19.05;;;8.77;;
48685;SDS011;34485;51.536;3.816;2023-10-09T02:38:45;18.97;;;7.83;;
48685;SDS011;34485;51.536;3.816;2023-10-09T02:41:13;15.88;;;8.85;;
48685;SDS011;34485;51.536;3.816;2023-10-09T02:43:42;19.98;;;7.78;;
48685;SDS011;34485;51.536;3.816;2023-10-09T02:46:14;15.55;;;8.32;;
48685;SDS011;34485;51.536;3.816;2023-10-09T02:48:49;20.05;;;8.60;;
48685;SDS011;34485;51.536;3.816;2023-10-09T02:51:21;20.43;;;6.77;;
48685;SDS011;34485;51.536;3.816;2023-10-09T02:53:50;26.10;;;8.07;;
48685;SDS011;34485;51.536;3.816;2023-10-09T02:56:47;18.27;;;7.85;;
48685;SDS011;34485;51.536;3.816;2023-10-09T02:59:20;20.02;;;6.78;;
48685;SDS011;34485;51.536;3.816;2023-10-09T03:01:50;18.58;;;7.22;;
48685;SDS011;34485;51.536;3.816;2023-10-09T03:04:19;18.50;;;7.13;;
48685;SDS011;34485;51.536;3.816;2023-10-09T03:06:48;19.33;;;6.72;;
48685;SDS011;34485;51.536;3.816;2023-10-09T03:09:22;21.25;;;7.57;;
48685;SDS011;34485;51.536;3.816;2023-10-09T03:11:52;19.65;;;6.95;;
48685;SDS011;34485;51.536;3.816;2023-10-09T03:14:20;17.23;;;8.32;;
48685;SDS011;34485;51.536;3.816;2023-10-09T03:16:46;18.53;;;7.33;;
48685;SDS011;34485;51.536;3.816;2023-10-09T03:19:15;15.25;;;7.22;;
48685;SDS011;34485;51.536;3.816;2023-10-09T03:21:41;16.88;;;8.50;;
48685;SDS011;34485;51.536;3.816;2023-10-09T03:24:07;18.27;;;6.72;;
48685;SDS011;34485;51.536;3.816;2023-10-09T03:26:33;18.97;;;8.17;;
48685;SDS011;34485;51.536;3.816;2023-10-09T03:28:59;17.70;;;8.43;;
48685;SDS011;34485;51.536;3.816;2023-10-09T03:31:31;19.10;;;8.75;;
48685;SDS011;34485;51.536;3.816;2023-10-09T03:33:58;17.27;;;8.90;;
48685;SDS011;34485;51.536;3.816;2023-10-09T03:36:24;15.95;;;8.18;;
48685;SDS011;34485;51.536;3.816;2023-10-09T03:38:54;11.75;;;7.28;;
48685;SDS011;34485;51.536;3.816;2023-10-09T03:41:20;18.87;;;7.47;;
48685;SDS011;34485;51.536;3.816;2023-10-09T03:43:46;20.02;;;8.73;;
48685;SDS011;34485;51.536;3.816;2023-10-09T03:46:12;20.38;;;7.55;;
48685;SDS011;34485;51.536;3.816;2023-10-09T03:48:45;14.53;;;7.07;;
48685;SDS011;34485;51.536;3.816;2023-10-09T03:51:12;15.98;;;6.10;;
48685;SDS011;34485;51.536;3.816;2023-10-09T03:53:45;12.15;;;6.35;;
48685;SDS011;34485;51.536;3.816;2023-10-09T03:56:12;10.20;;;6.38;;
48685;SDS011;34485;51.536;3.816;2023-10-09T03:58:42;18.80;;;6.50;;
48685;SDS011;34485;51.536;3.816;2023-10-09T04:01:10;19.33;;;7.23;;
48685;SDS011;34485;51.536;3.816;2023-10-09T04:03:43;15.43;;;6.88;;
48685;SDS011;34485;51.536;3.816;2023-10-09T04:06:09;23.55;;;6.65;;
48685;SDS011;34485;51.536;3.816;2023-10-09T04:08:36;22.38;;;7.45;;
48685;SDS011;34485;51.536;3.816;2023-10-09T04:11:05;10.43;;;5.50;;
48685;SDS011;34485;51.536;3.816;2023-10-09T04:13:41;14.67;;;5.50;;
48685;SDS011;34485;51.536;3.816;2023-10-09T04:16:15;15.07;;;5.63;;
48685;SDS011;34485;51.536;3.816;2023-10-09T04:18:56;16.05;;;7.15;;
48685;SDS011;34485;51.536;3.816;2023-10-09T04:21:22;13.77;;;5.35;;
48685;SDS011;34485;51.536;3.816;2023-10-09T04:24:02;17.98;;;6.03;;
48685;SDS011;34485;51.536;3.816;2023-10-09T04:26:37;14.03;;;5.23;;
48685;SDS011;34485;51.536;3.816;2023-10-09T04:29:15;15.52;;;6.78;;
48685;SDS011;34485;51.536;3.816;2023-10-09T04:32:04;16.42;;;6.60;;
48685;SDS011;34485;51.536;3.816;2023-10-09T04:34:41;18.00;;;5.97;;
48685;SDS011;34485;51.536;3.816;2023-10-09T04:37:21;10.00;;;6.60;;
48685;SDS011;34485;51.536;3.816;2023-10-09T04:40:08;12.37;;;6.43;;
48685;SDS011;34485;51.536;3.816;2023-10-09T04:42:38;16.27;;;7.75;;
48685;SDS011;34485;51.536;3.816;2023-10-09T04:45:06;14.27;;;7.53;;
48685;SDS011;34485;51.536;3.816;2023-10-09T04:47:33;19.40;;;8.48;;
48685;SDS011;34485;51.536;3.816;2023-10-09T04:50:04;16.92;;;8.05;;
48685;SDS011;34485;51.536;3.816;2023-10-09T04:52:50;12.23;;;7.23;;
48685;SDS011;34485;51.536;3.816;2023-10-09T04:55:16;12.13;;;7.18;;
48685;SDS011;34485;51.536;3.816;2023-10-09T04:57:48;15.82;;;7.82;;
48685;SDS011;34485;51.536;3.816;2023-10-09T05:00:25;14.20;;;6.27;;
48685;SDS011;34485;51.536;3.816;2023-10-09T05:02:52;13.95;;;6.38;;
48685;SDS011;34485;51.536;3.816;2023-10-09T05:05:22;15.45;;;8.02;;
48685;SDS011;34485;51.536;3.816;2023-10-09T05:08:10;9.88;;;6.05;;
48685;SDS011;34485;51.536;3.816;2023-10-09T05:11:09;15.40;;;7.25;;
48685;SDS011;34485;51.536;3.816;2023-10-09T05:13:40;12.90;;;6.93;;
48685;SDS011;34485;51.536;3.816;2023-10-09T05:16:13;18.40;;;6.47;;
48685;SDS011;34485;51.536;3.816;2023-10-09T05:18:58;12.68;;;6.28;;
48685;SDS011;34485;51.536;3.816;2023-10-09T05:21:46;16.90;;;6.18;;
48685;SDS011;34485;51.536;3.816;2023-10-09T05:24:12;14.23;;;6.60;;
48685;SDS011;34485;51.536;3.816;2023-10-09T05:29:18;20.58;;;7.55;;
48685;SDS011;34485;51.536;3.816;2023-10-09T05:32:02;13.88;;;6.43;;
48685;SDS011;34485;51.536;3.816;2023-10-09T05:34:38;11.83;;;6.70;;
48685;SDS011;34485;51.536;3.816;2023-10-09T05:37:22;18.33;;;6.03;;
48685;SDS011;34485;51.536;3.816;2023-10-09T05:39:52;14.48;;;6.82;;
48685;SDS011;34485;51.536;3.816;2023-10-09T05:42:25;11.60;;;6.68;;
48685;SDS011;34485;51.536;3.816;2023-10-09T05:45:13;16.65;;;7.28;;
48685;SDS011;34485;51.536;3.816;2023-10-09T05:47:41;12.17;;;5.77;;
48685;SDS011;34485;51.536;3.816;2023-10-09T05:50:30;19.05;;;6.88;;
48685;SDS011;34485;51.536;3.816;2023-10-09T05:52:59;16.85;;;7.30;;
48685;SDS011;34485;51.536;3.816;2023-10-09T05:55:26;15.02;;;6.25;;
48685;SDS011;34485;51.536;3.816;2023-10-09T05:58:11;14.88;;;6.47;;
48685;SDS011;34485;51.536;3.816;2023-10-09T06:00:56;16.70;;;6.63;;
48685;SDS011;34485;51.536;3.816;2023-10-09T06:03:30;16.02;;;7.30;;
48685;SDS011;34485;51.536;3.816;2023-10-09T06:06:11;11.55;;;6.80;;
48685;SDS011;34485;51.536;3.816;2023-10-09T06:08:43;16.38;;;6.95;;
48685;SDS011;34485;51.536;3.816;2023-10-09T06:11:09;9.73;;;6.10;;
48685;SDS011;34485;51.536;3.816;2023-10-09T06:13:55;22.08;;;6.47;;
48685;SDS011;34485;51.536;3.816;2023-10-09T06:16:37;14.75;;;7.00;;
48685;SDS011;34485;51.536;3.816;2023-10-09T06:19:06;16.73;;;8.18;;
48685;SDS011;34485;51.536;3.816;2023-10-09T06:21:57;14.68;;;6.53;;
48685;SDS011;34485;51.536;3.816;2023-10-09T06:24:42;17.73;;;7.93;;
48685;SDS011;34485;51.536;3.816;2023-10-09T06:27:11;15.57;;;7.40;;
48685;SDS011;34485;51.536;3.816;2023-10-09T06:29:41;14.05;;;6.95;;
48685;SDS011;34485;51.536;3.816;2023-10-09T06:32:11;15.10;;;7.20;;
48685;SDS011;34485;51.536;3.816;2023-10-09T06:35:00;18.00;;;8.40;;
48685;SDS011;34485;51.536;3.816;2023-10-09T06:37:44;11.23;;;6.93;;
48685;SDS011;34485;51.536;3.816;2023-10-09T06:40:30;14.75;;;8.18;;
48685;SDS011;34485;51.536;3.816;2023-10-09T06:43:16;13.85;;;7.68;;
48685;SDS011;34485;51.536;3.816;2023-10-09T06:45:45;16.85;;;7.15;;
48685;SDS011;34485;51.536;3.816;2023-10-09T06:48:13;14.80;;;7.47;;
48685;SDS011;34485;51.536;3.816;2023-10-09T06:51:01;14.02;;;7.20;;
48685;SDS011;34485;51.536;3.816;2023-10-09T06:53:47;14.98;;;6.85;;
48685;SDS011;34485;51.536;3.816;2023-10-09T06:56:26;13.65;;;6.78;;
48685;SDS011;34485;51.536;3.816;2023-10-09T06:58:59;13.63;;;7.95;;
48685;SDS011;34485;51.536;3.816;2023-10-09T07:01:46;15.37;;;6.30;;
48685;SDS011;34485;51.536;3.816;2023-10-09T07:04:16;12.05;;;6.43;;
48685;SDS011;34485;51.536;3.816;2023-10-09T07:06:47;14.35;;;6.47;;
48685;SDS011;34485;51.536;3.816;2023-10-09T07:09:15;13.00;;;7.05;;
48685;SDS011;34485;51.536;3.816;2023-10-09T07:11:47;11.75;;;6.15;;
48685;SDS011;34485;51.536;3.816;2023-10-09T07:14:15;15.77;;;6.17;;
48685;SDS011;34485;51.536;3.816;2023-10-09T07:17:07;11.82;;;6.07;;
48685;SDS011;34485;51.536;3.816;2023-10-09T07:19:45;11.25;;;6.45;;
48685;SDS011;34485;51.536;3.816;2023-10-09T07:22:11;18.67;;;5.70;;
48685;SDS011;34485;51.536;3.816;2023-10-09T07:30:10;8.60;;;5.85;;
48685;SDS011;34485;51.536;3.816;2023-10-09T07:35:33;11.20;;;5.87;;
48685;SDS011;34485;51.536;3.816;2023-10-09T07:38:18;13.77;;;5.43;;
48685;SDS011;34485;51.536;3.816;2023-10-09T07:40:45;13.40;;;5.03;;
48685;SDS011;34485;51.536;3.816;2023-10-09T07:43:31;18.55;;;5.80;;
48685;SDS011;34485;51.536;3.816;2023-10-09T07:46:07;12.57;;;5.63;;
48685;SDS011;34485;51.536;3.816;2023-10-09T07:48:52;16.70;;;6.00;;
48685;SDS011;34485;51.536;3.816;2023-10-09T07:51:21;12.48;;;4.68;;
48685;SDS011;34485;51.536;3.816;2023-10-09T07:53:54;10.77;;;4.68;;
48685;SDS011;34485;51.536;3.816;2023-10-09T07:56:31;12.25;;;5.22;;
48685;SDS011;34485;51.536;3.816;2023-10-09T07:59:03;8.65;;;4.90;;
48685;SDS011;34485;51.536;3.816;2023-10-09T08:01:46;18.50;;;5.30;;
48685;SDS011;34485;51.536;3.816;2023-10-09T08:04:24;8.10;;;4.63;;
48685;SDS011;34485;51.536;3.816;2023-10-09T08:07:10;12.25;;;5.07;;
48685;SDS011;34485;51.536;3.816;2023-10-09T08:09:53;7.82;;;4.15;;
48685;SDS011;34485;51.536;3.816;2023-10-09T08:12:38;8.93;;;4.47;;
48685;SDS011;34485;51.536;3.816;2023-10-09T08:15:23;14.27;;;4.57;;
48685;SDS011;34485;51.536;3.816;2023-10-09T08:17:59;13.45;;;5.45;;
48685;SDS011;34485;51.536;3.816;2023-10-09T08:20:43;11.70;;;5.18;;
48685;SDS011;34485;51.536;3.816;2023-10-09T08:23:27;12.43;;;5.57;;
48685;SDS011;34485;51.536;3.816;2023-10-09T08:26:13;13.35;;;4.57;;
48685;SDS011;34485;51.536;3.816;2023-10-09T08:28:42;8.60;;;4.70;;
48685;SDS011;34485;51.536;3.816;2023-10-09T08:31:11;15.57;;;4.28;;
48685;SDS011;34485;51.536;3.816;2023-10-09T08:33:44;8.10;;;4.63;;
48685;SDS011;34485;51.536;3.816;2023-10-09T08:36:23;11.02;;;4.85;;
48685;SDS011;34485;51.536;3.816;2023-10-09T08:39:15;8.75;;;4.80;;
48685;SDS011;34485;51.536;3.816;2023-10-09T08:41:50;8.93;;;4.70;;
48685;SDS011;34485;51.536;3.816;2023-10-09T08:44:17;14.85;;;5.50;;
48685;SDS011;34485;51.536;3.816;2023-10-09T08:46:47;12.85;;;6.07;;
48685;SDS011;34485;51.536;3.816;2023-10-09T08:49:15;14.63;;;5.85;;
48685;SDS011;34485;51.536;3.816;2023-10-09T08:51:42;9.50;;;5.60;;
48685;SDS011;34485;51.536;3.816;2023-10-09T08:54:07;16.70;;;5.97;;
48685;SDS011;34485;51.536;3.816;2023-10-09T08:56:36;17.23;;;5.10;;
48685;SDS011;34485;51.536;3.816;2023-10-09T08:59:04;14.30;;;6.50;;
48685;SDS011;34485;51.536;3.816;2023-10-09T09:01:30;16.20;;;5.28;;
48685;SDS011;34485;51.536;3.816;2023-10-09T09:03:59;10.40;;;5.30;;
48685;SDS011;34485;51.536;3.816;2023-10-09T09:06:27;15.02;;;6.18;;
48685;SDS011;34485;51.536;3.816;2023-10-09T09:09:10;13.07;;;5.95;;
48685;SDS011;34485;51.536;3.816;2023-10-09T09:11:42;12.30;;;5.95;;
48685;SDS011;34485;51.536;3.816;2023-10-09T09:14:14;15.38;;;5.30;;
48685;SDS011;34485;51.536;3.816;2023-10-09T09:16:47;14.90;;;5.60;;
48685;SDS011;34485;51.536;3.816;2023-10-09T09:19:17;11.70;;;5.25;;
48685;SDS011;34485;51.536;3.816;2023-10-09T09:21:52;15.35;;;4.82;;
48685;SDS011;34485;51.536;3.816;2023-10-09T09:24:24;16.77;;;5.95;;
48685;SDS011;34485;51.536;3.816;2023-10-09T09:26:51;16.43;;;7.47;;
48685;SDS011;34485;51.536;3.816;2023-10-09T09:29:24;14.07;;;4.65;;
48685;SDS011;34485;51.536;3.816;2023-10-09T09:32:03;11.73;;;4.22;;
48685;SDS011;34485;51.536;3.816;2023-10-09T09:34:50;14.15;;;4.65;;
48685;SDS011;34485;51.536;3.816;2023-10-09T09:37:23;15.18;;;4.35;;
48685;SDS011;34485;51.536;3.816;2023-10-09T09:39:54;10.50;;;4.70;;
48685;SDS011;34485;51.536;3.816;2023-10-09T09:42:22;13.18;;;5.47;;
48685;SDS011;34485;51.536;3.816;2023-10-09T09:44:52;8.20;;;3.92;;
48685;SDS011;34485;51.536;3.816;2023-10-09T09:47:20;11.68;;;4.20;;
48685;SDS011;34485;51.536;3.816;2023-10-09T09:49:53;11.95;;;4.50;;
48685;SDS011;34485;51.536;3.816;2023-10-09T09:52:21;10.37;;;4.43;;
48685;SDS011;34485;51.536;3.816;2023-10-09T09:54:49;11.27;;;4.93;;
48685;SDS011;34485;51.536;3.816;2023-10-09T09:57:15;13.25;;;5.18;;
48685;SDS011;34485;51.536;3.816;2023-10-09T09:59:51;9.90;;;5.03;;
48685;SDS011;34485;51.536;3.816;2023-10-09T10:02:27;8.95;;;4.78;;
48685;SDS011;34485;51.536;3.816;2023-10-09T10:04:58;8.55;;;4.25;;
48685;SDS011;34485;51.536;3.816;2023-10-09T10:07:28;8.70;;;4.15;;
48685;SDS011;34485;51.536;3.816;2023-10-09T10:09:56;11.48;;;4.90;;
48685;SDS011;34485;51.536;3.816;2023-10-09T10:15:12;10.93;;;4.47;;
48685;SDS011;34485;51.536;3.816;2023-10-09T10:20:24;8.93;;;4.97;;
48685;SDS011;34485;51.536;3.816;2023-10-09T10:22:51;7.45;;;4.68;;
48685;SDS011;34485;51.536;3.816;2023-10-09T10:25:42;9.00;;;4.13;;
48685;SDS011;34485;51.536;3.816;2023-10-09T10:28:26;13.88;;;4.38;;
48685;SDS011;34485;51.536;3.816;2023-10-09T10:31:07;9.70;;;5.20;;
48685;SDS011;34485;51.536;3.816;2023-10-09T10:36:23;8.83;;;4.53;;
48685;SDS011;34485;51.536;3.816;2023-10-09T10:39:07;11.27;;;4.45;;
48685;SDS011;34485;51.536;3.816;2023-10-09T10:41:36;8.18;;;4.50;;
48685;SDS011;34485;51.536;3.816;2023-10-09T10:44:04;7.75;;;4.22;;
48685;SDS011;34485;51.536;3.816;2023-10-09T10:46:59;8.60;;;4.75;;
48685;SDS011;34485;51.536;3.816;2023-10-09T10:49:26;8.17;;;3.80;;
48685;SDS011;34485;51.536;3.816;2023-10-09T10:52:01;7.75;;;4.90;;
48685;SDS011;34485;51.536;3.816;2023-10-09T10:54:40;6.35;;;4.22;;
48685;SDS011;34485;51.536;3.816;2023-10-09T10:57:21;6.93;;;4.53;;
48685;SDS011;34485;51.536;3.816;2023-10-09T10:59:54;5.45;;;4.00;;
48685;SDS011;34485;51.536;3.816;2023-10-09T11:02:38;6.30;;;4.20;;
48685;SDS011;34485;51.536;3.816;2023-10-09T11:05:06;12.35;;;4.63;;
48685;SDS011;34485;51.536;3.816;2023-10-09T11:07:39;10.80;;;4.20;;
48685;SDS011;34485;51.536;3.816;2023-10-09T11:10:06;8.25;;;4.43;;
48685;SDS011;34485;51.536;3.816;2023-10-09T11:15:08;7.20;;;4.37;;
48685;SDS011;34485;51.536;3.816;2023-10-09T11:18:04;10.60;;;4.63;;
48685;SDS011;34485;51.536;3.816;2023-10-09T11:20:50;10.13;;;4.53;;
48685;SDS011;34485;51.536;3.816;2023-10-09T11:23:29;9.80;;;4.55;;
48685;SDS011;34485;51.536;3.816;2023-10-09T11:25:58;7.13;;;4.40;;
48685;SDS011;34485;51.536;3.816;2023-10-09T11:28:44;8.97;;;4.10;;
48685;SDS011;34485;51.536;3.816;2023-10-09T11:31:22;7.38;;;4.60;;
48685;SDS011;34485;51.536;3.816;2023-10-09T11:33:51;8.40;;;4.25;;
48685;SDS011;34485;51.536;3.816;2023-10-09T11:36:18;6.78;;;4.50;;
48685;SDS011;34485;51.536;3.816;2023-10-09T11:38:54;7.28;;;4.13;;
48685;SDS011;34485;51.536;3.816;2023-10-09T11:41:39;9.00;;;4.27;;
48685;SDS011;34485;51.536;3.816;2023-10-09T11:44:09;9.32;;;4.22;;
48685;SDS011;34485;51.536;3.816;2023-10-09T11:46:59;8.98;;;4.95;;
48685;SDS011;34485;51.536;3.816;2023-10-09T11:49:55;5.55;;;4.25;;
48685;SDS011;34485;51.536;3.816;2023-10-09T11:52:27;10.70;;;4.55;;
48685;SDS011;34485;51.536;3.816;2023-10-09T11:54:56;8.33;;;4.90;;
48685;SDS011;34485;51.536;3.816;2023-10-09T11:57:23;10.32;;;4.38;;
48685;SDS011;34485;51.536;3.816;2023-10-09T11:59:55;7.68;;;5.00;;
48685;SDS011;34485;51.536;3.816;2023-10-09T12:02:22;11.10;;;4.80;;
48685;SDS011;34485;51.536;3.816;2023-10-09T12:04:48;10.00;;;5.00;;
48685;SDS011;34485;51.536;3.816;2023-10-09T12:07:14;5.95;;;4.68;;
48685;SDS011;34485;51.536;3.816;2023-10-09T12:09:39;8.13;;;4.20;;
48685;SDS011;34485;51.536;3.816;2023-10-09T12:12:06;9.48;;;4.57;;
48685;SDS011;34485;51.536;3.816;2023-10-09T12:14:33;9.00;;;4.53;;
48685;SDS011;34485;51.536;3.816;2023-10-09T12:17:00;7.80;;;4.30;;
48685;SDS011;34485;51.536;3.816;2023-10-09T12:19:33;6.95;;;4.50;;
48685;SDS011;34485;51.536;3.816;2023-10-09T12:22:03;8.65;;;4.35;;
48685;SDS011;34485;51.536;3.816;2023-10-09T12:24:35;6.72;;;4.60;;
48685;SDS011;34485;51.536;3.816;2023-10-09T12:27:02;7.07;;;4.35;;
48685;SDS011;34485;51.536;3.816;2023-10-09T12:29:34;7.03;;;4.37;;
48685;SDS011;34485;51.536;3.816;2023-10-09T12:32:00;7.25;;;4.38;;
48685;SDS011;34485;51.536;3.816;2023-10-09T12:34:27;6.75;;;4.63;;
48685;SDS011;34485;51.536;3.816;2023-10-09T12:36:54;7.70;;;4.93;;
48685;SDS011;34485;51.536;3.816;2023-10-09T12:39:23;7.13;;;4.65;;
48685;SDS011;34485;51.536;3.816;2023-10-09T12:41:48;8.82;;;4.75;;
48685;SDS011;34485;51.536;3.816;2023-10-09T12:44:18;8.95;;;5.07;;
48685;SDS011;34485;51.536;3.816;2023-10-09T12:46:45;8.57;;;4.83;;
48685;SDS011;34485;51.536;3.816;2023-10-09T12:49:21;15.50;;;5.15;;
48685;SDS011;34485;51.536;3.816;2023-10-09T12:51:51;8.80;;;5.10;;
48685;SDS011;34485;51.536;3.816;2023-10-09T12:54:17;15.55;;;4.63;;
48685;SDS011;34485;51.536;3.816;2023-10-09T12:56:45;18.08;;;4.82;;
48685;SDS011;34485;51.536;3.816;2023-10-09T12:59:13;12.90;;;5.20;;
48685;SDS011;34485;51.536;3.816;2023-10-09T13:01:43;10.23;;;5.32;;
48685;SDS011;34485;51.536;3.816;2023-10-09T13:04:12;7.25;;;5.20;;
48685;SDS011;34485;51.536;3.816;2023-10-09T13:06:44;9.82;;;5.20;;
48685;SDS011;34485;51.536;3.816;2023-10-09T13:09:11;8.18;;;4.97;;
48685;SDS011;34485;51.536;3.816;2023-10-09T13:11:38;8.43;;;4.67;;
48685;SDS011;34485;51.536;3.816;2023-10-09T13:14:05;7.60;;;4.82;;
48685;SDS011;34485;51.536;3.816;2023-10-09T13:16:46;6.97;;;4.70;;
48685;SDS011;34485;51.536;3.816;2023-10-09T13:19:15;9.15;;;5.20;;
48685;SDS011;34485;51.536;3.816;2023-10-09T13:21:42;13.65;;;5.72;;
48685;SDS011;34485;51.536;3.816;2023-10-09T13:24:08;6.60;;;4.50;;
48685;SDS011;34485;51.536;3.816;2023-10-09T13:26:49;10.82;;;5.65;;
48685;SDS011;34485;51.536;3.816;2023-10-09T13:29:16;6.85;;;4.78;;
48685;SDS011;34485;51.536;3.816;2023-10-09T13:31:47;8.07;;;4.22;;
48685;SDS011;34485;51.536;3.816;2023-10-09T13:34:15;8.65;;;4.40;;
48685;SDS011;34485;51.536;3.816;2023-10-09T13:36:41;8.20;;;4.43;;
48685;SDS011;34485;51.536;3.816;2023-10-09T13:39:15;12.50;;;5.00;;
48685;SDS011;34485;51.536;3.816;2023-10-09T13:41:50;12.10;;;4.75;;
48685;SDS011;34485;51.536;3.816;2023-10-09T13:44:29;7.67;;;5.23;;
48685;SDS011;34485;51.536;3.816;2023-10-09T13:46:55;10.88;;;5.43;;
48685;SDS011;34485;51.536;3.816;2023-10-09T13:49:21;9.27;;;4.50;;
48685;SDS011;34485;51.536;3.816;2023-10-09T13:51:48;11.15;;;5.18;;
48685;SDS011;34485;51.536;3.816;2023-10-09T13:54:15;11.07;;;4.82;;
48685;SDS011;34485;51.536;3.816;2023-10-09T13:57:03;8.07;;;5.57;;
48685;SDS011;34485;51.536;3.816;2023-10-09T13:59:30;6.90;;;4.80;;
48685;SDS011;34485;51.536;3.816;2023-10-09T14:01:56;9.70;;;4.80;;
48685;SDS011;34485;51.536;3.816;2023-10-09T14:04:24;14.52;;;5.93;;
48685;SDS011;34485;51.536;3.816;2023-10-09T14:06:53;9.80;;;5.40;;
48685;SDS011;34485;51.536;3.816;2023-10-09T14:09:22;8.73;;;5.27;;
48685;SDS011;34485;51.536;3.816;2023-10-09T14:12:09;10.93;;;5.00;;
48685;SDS011;34485;51.536;3.816;2023-10-09T14:14:39;7.38;;;4.88;;
48685;SDS011;34485;51.536;3.816;2023-10-09T14:17:12;10.70;;;4.97;;
48685;SDS011;34485;51.536;3.816;2023-10-09T14:19:53;7.82;;;4.90;;
48685;SDS011;34485;51.536;3.816;2023-10-09T14:22:20;14.57;;;4.93;;
48685;SDS011;34485;51.536;3.816;2023-10-09T14:24:51;13.75;;;6.47;;
48685;SDS011;34485;51.536;3.816;2023-10-09T14:27:22;12.30;;;5.47;;
48685;SDS011;34485;51.536;3.816;2023-10-09T14:29:54;11.05;;;5.03;;
48685;SDS011;34485;51.536;3.816;2023-10-09T14:32:22;7.45;;;4.93;;
48685;SDS011;34485;51.536;3.816;2023-10-09T14:34:57;6.93;;;4.70;;
48685;SDS011;34485;51.536;3.816;2023-10-09T14:37:37;11.32;;;4.72;;
48685;SDS011;34485;51.536;3.816;2023-10-09T14:40:05;9.35;;;4.60;;
48685;SDS011;34485;51.536;3.816;2023-10-09T14:42:37;13.45;;;5.50;;
48685;SDS011;34485;51.536;3.816;2023-10-09T14:45:10;6.72;;;5.00;;
48685;SDS011;34485;51.536;3.816;2023-10-09T14:47:41;16.33;;;5.43;;
48685;SDS011;34485;51.536;3.816;2023-10-09T14:50:07;7.28;;;4.53;;
48685;SDS011;34485;51.536;3.816;2023-10-09T14:52:34;13.25;;;5.57;;
48685;SDS011;34485;51.536;3.816;2023-10-09T14:55:03;11.75;;;4.72;;
48685;SDS011;34485;51.536;3.816;2023-10-09T14:57:30;12.70;;;5.65;;
48685;SDS011;34485;51.536;3.816;2023-10-09T15:00:02;11.87;;;5.00;;
48685;SDS011;34485;51.536;3.816;2023-10-09T15:02:38;10.60;;;5.22;;
48685;SDS011;34485;51.536;3.816;2023-10-09T15:05:04;11.07;;;5.40;;
48685;SDS011;34485;51.536;3.816;2023-10-09T15:07:30;11.30;;;5.63;;
48685;SDS011;34485;51.536;3.816;2023-10-09T15:09:55;9.68;;;5.03;;
48685;SDS011;34485;51.536;3.816;2023-10-09T15:12:28;9.40;;;4.53;;
48685;SDS011;34485;51.536;3.816;2023-10-09T15:14:54;9.00;;;5.27;;
48685;SDS011;34485;51.536;3.816;2023-10-09T15:17:21;12.57;;;4.82;;
48685;SDS011;34485;51.536;3.816;2023-10-09T15:19:47;13.77;;;4.90;;
48685;SDS011;34485;51.536;3.816;2023-10-09T15:22:13;10.63;;;5.13;;
48685;SDS011;34485;51.536;3.816;2023-10-09T15:24:39;14.23;;;6.20;;
48685;SDS011;34485;51.536;3.816;2023-10-09T15:27:05;12.73;;;5.53;;
48685;SDS011;34485;51.536;3.816;2023-10-09T15:29:31;13.93;;;4.63;;
48685;SDS011;34485;51.536;3.816;2023-10-09T15:31:58;9.98;;;5.25;;
48685;SDS011;34485;51.536;3.816;2023-10-09T15:34:39;9.60;;;4.65;;
48685;SDS011;34485;51.536;3.816;2023-10-09T15:37:06;6.17;;;4.20;;